Cumberland Express — WDE4537 — position and weather

sailwx.info

Track history (hours):
 
Tides and Currents Weather Stations Pressure Air Temp Water Temp Dewpoint Dewpoint Depression Visibility Wind Speed Wind Dir Waves Ship Positions

Cumberland Express

Owner: Ingram Barge Company LLC, Nashville, TN. More information available from US FCC via Universal Licensing System and Coast Guard Vessel Documentation Center.

Last reported at 2018-May-15 14:00 UTC. Time now 2018-Jun-23 06:33 UTC.
Position N 38°33' W 090°15'.
Warning: this ship's position is 38 days out of date.

Length 14 m.

Type: Towing. MMSI: 367354540.

Date/timePositionNaut miles runAvg speedWind from/ knotsBaromVisibWave heightAir tempDewpointWater temp
2018-May-15 14:00N 38°33' W 090°15'0 0.4
2018-May-15 13:25N 38°32' W 090°15'0 0.7
2018-May-15 12:59N 38°33' W 090°15'0 0.3
2018-May-15 12:25N 38°32' W 090°15'1 1.8
2018-May-15 11:56N 38°33' W 090°14'1 2.2
2018-May-15 11:30N 38°32' W 090°15'0 0.0
2018-May-15 11:00N 38°32' W 090°15'0 0.0
2018-May-15 10:30N 38°32' W 090°15'0 0.2
2018-May-15 10:00N 38°32' W 090°15'3 4.9
2018-May-15 09:20N 38°35' W 090°13'1 2.8
2018-May-15 09:00N 38°36' W 090°12'3 6.7
2018-May-15 08:30N 38°39' W 090°11'1 2.5
2018-May-15 08:00N 38°40' W 090°11'1 2.2
2018-May-15 07:30N 38°39' W 090°11'1 1.4
2018-May-15 07:00N 38°38' W 090°11'2 4.6
2018-May-15 06:30N 38°36' W 090°11'4 4.6
2018-May-15 05:38N 38°33' W 090°15'1 3.8
2018-May-15 05:29N 38°33' W 090°15'1 1.0
2018-May-15 04:52N 38°32' W 090°15'0 0.2
2018-May-15 04:30N 38°32' W 090°15'1 1.5
2018-May-15 04:00N 38°33' W 090°15'0 0.5
2018-May-15 03:30N 38°32' W 090°15'0 0.2
2018-May-15 03:00N 38°32' W 090°15'3 4.3
2018-May-15 02:15N 38°35' W 090°13'1 2.2
2018-May-15 01:39N 38°36' W 090°11'0 2.9
2018-May-15 01:30N 38°36' W 090°12'2 3.9
2018-May-15 00:57N 38°34' W 090°14'2 3.5
2018-May-15 00:27N 38°33' W 090°15'0 0.0
2018-May-15 00:00N 38°33' W 090°15'0 0.1
2018-May-14 23:29N 38°33' W 090°15'0 0.1
2018-May-14 21:34N 38°33' W 090°15'1 0.5
2018-May-14 19:28N 38°32' W 090°16'511.0
2018-May-14 19:00N 38°36' W 090°12'4 8.6
2018-May-14 18:29N 38°40' W 090°11'0 0.0
2018-May-14 18:00N 38°40' W 090°11'2 3.4
2018-May-14 17:30N 38°39' W 090°11'3 5.8
2018-May-14 17:00N 38°36' W 090°12'4 5.5
2018-May-14 16:18N 38°33' W 090°15'1 0.5
2018-May-14 15:10N 38°33' W 090°14'0 0.1
2018-May-14 14:59N 38°33' W 090°14'0 0.0
2018-May-14 12:40N 38°33' W 090°14'1 2.0
2018-May-14 12:19N 38°33' W 090°15'0 1.0
2018-May-14 11:54N 38°32' W 090°15'0 0.0
2018-May-14 11:31N 38°32' W 090°15'0 0.0
2018-May-14 11:00N 38°32' W 090°15'0 0.0
2018-May-14 10:30N 38°32' W 090°15'1 2.3
2018-May-14 09:59N 38°31' W 090°16'0 0.0
2018-May-14 09:30N 38°31' W 090°16'0 0.0
2018-May-14 09:01N 38°31' W 090°16'0 0.0
2018-May-14 08:30N 38°31' W 090°16'0 0.0
2018-May-14 08:00N 38°31' W 090°16'0 0.1
2018-May-14 07:29N 38°31' W 090°16'1 1.6
2018-May-14 07:00N 38°32' W 090°15'5 6.4
2018-May-14 06:17N 38°36' W 090°12'2 6.7
2018-May-14 06:00N 38°37' W 090°11'1 1.5
2018-May-14 05:28N 38°38' W 090°11'2 4.7
2018-May-14 05:00N 38°40' W 090°11'1 1.5
2018-May-14 04:31N 38°40' W 090°11'1 2.6
2018-May-14 04:00N 38°38' W 090°11'1 2.4
2018-May-14 03:30N 38°37' W 090°11'1 1.6
2018-May-14 02:55N 38°36' W 090°11'4 2.0
2018-May-14 00:58N 38°33' W 090°15'0 0.0
2018-May-13 15:39N 38°33' W 090°15'1 3.3
2018-May-13 15:30N 38°32' W 090°15'1 0.6
2018-May-13 13:52N 38°31' W 090°16'0 0.3
2018-May-13 13:22N 38°31' W 090°16'0 0.1
2018-May-13 12:02N 38°31' W 090°16'0 1.2
2018-May-13 11:59N 38°31' W 090°16'1 1.2
2018-May-13 11:25N 38°32' W 090°15'0 1.0
2018-May-13 10:59N 38°32' W 090°15'0 0.0
2018-May-13 10:23N 38°32' W 090°15'0 0.5
2018-May-13 09:35N 38°33' W 090°15'0 1.2
2018-May-13 09:30N 38°33' W 090°15'0 0.1
2018-May-13 08:49N 38°33' W 090°15'0 1.2
2018-May-13 08:30N 38°33' W 090°14'0 0.1
2018-May-13 07:58N 38°33' W 090°14'4 7.2
2018-May-13 07:25N 38°36' W 090°11'0 0.2
2018-May-13 07:00N 38°36' W 090°11'1 2.5
2018-May-13 06:30N 38°37' W 090°11'5 9.2
2018-May-13 06:00N 38°42' W 090°11'1 1.2
2018-May-13 05:30N 38°43' W 090°11'3 5.7
2018-May-13 05:00N 38°45' W 090°09'4 7.9
2018-May-13 04:30N 38°49' W 090°07'1 1.9
2018-May-13 04:00N 38°50' W 090°07'4 6.9
2018-May-13 03:29N 38°46' W 090°08'4 8.2
2018-May-13 03:00N 38°43' W 090°10'1 1.5
2018-May-13 02:27N 38°42' W 090°11'10 4.9
2018-May-13 00:30N 38°33' W 090°15'1 2.6
2018-May-13 00:00N 38°32' W 090°15'1 1.5
2018-May-12 23:30N 38°32' W 090°15'0 0.0
2018-May-12 22:57N 38°32' W 090°15'1 1.2
2018-May-12 22:23N 38°32' W 090°15'5 4.2
2018-May-12 21:05N 38°36' W 090°11'1 8.4
2018-May-12 21:00N 38°37' W 090°11'3 6.8
2018-May-12 20:30N 38°40' W 090°11'0 0.1
2018-May-12 20:00N 38°40' W 090°11'0 1.0
2018-May-12 19:30N 38°40' W 090°11'3 5.7
2018-May-12 19:00N 38°37' W 090°11'5 5.2
2018-May-12 18:05N 38°33' W 090°14'1 6.6
2018-May-12 17:58N 38°32' W 090°15'1 1.9
2018-May-12 17:30N 38°32' W 090°15'0 0.5
2018-May-12 17:00N 38°32' W 090°15'5 9.2
2018-May-12 16:26N 38°36' W 090°11'4 9.1
2018-May-12 15:59N 38°40' W 090°11'2 3.9
2018-May-12 15:29N 38°38' W 090°11'3 5.4
2018-May-12 14:59N 38°36' W 090°12'3 5.5
2018-May-12 14:22N 38°33' W 090°14'1 1.9
2018-May-12 13:39N 38°32' W 090°15'1 0.4
2018-May-12 12:10N 38°31' W 090°16'0 0.1
2018-May-12 11:48N 38°31' W 090°16'1 1.9
2018-May-12 11:17N 38°32' W 090°15'0 0.0
2018-May-12 10:56N 38°32' W 090°15'0 0.4
2018-May-12 10:28N 38°32' W 090°15'1 1.1
2018-May-12 10:00N 38°32' W 090°15'0 0.5
2018-May-12 09:28N 38°31' W 090°16'0 0.9
2018-May-12 09:00N 38°32' W 090°15'0 0.4
2018-May-12 08:30N 38°32' W 090°15'0 0.6
2018-May-12 07:54N 38°31' W 090°16'0 0.3
2018-May-12 07:29N 38°31' W 090°16'0 0.3
2018-May-12 07:00N 38°32' W 090°15'0 0.3
2018-May-12 06:30N 38°31' W 090°16'0 0.8
2018-May-12 06:00N 38°32' W 090°15'0 0.9
2018-May-12 05:30N 38°31' W 090°16'1 1.2
2018-May-12 04:58N 38°32' W 090°15'0 0.2
2018-May-12 04:29N 38°32' W 090°15'5 6.9
2018-May-12 03:49N 38°36' W 090°12'3 7.9
2018-May-12 03:27N 38°39' W 090°11'2 4.0
2018-May-12 03:00N 38°40' W 090°11'0 0.1
2018-May-12 02:30N 38°40' W 090°11'1 2.0
2018-May-12 02:00N 38°39' W 090°11'3 5.7
2018-May-12 01:30N 38°36' W 090°11'4 2.4
2018-May-11 23:47N 38°33' W 090°14'1 2.8
2018-May-11 23:29N 38°32' W 090°15'6 7.0
2018-May-11 22:41N 38°37' W 090°11'213.3
2018-May-11 22:30N 38°39' W 090°11'0 0.7
2018-May-11 22:00N 38°40' W 090°11'3 5.8
2018-May-11 21:25N 38°36' W 090°11'0 0.1
2018-May-11 17:41N 38°37' W 090°11'3 7.9
2018-May-11 17:22N 38°39' W 090°11'1 2.9
2018-May-11 17:00N 38°40' W 090°11'0 0.0
2018-May-11 16:30N 38°40' W 090°11'0 0.0
2018-May-11 16:00N 38°40' W 090°11'1 1.1
2018-May-11 15:30N 38°40' W 090°11'7 2.4
2018-May-11 12:40N 38°33' W 090°14'0 2.2
2018-May-11 12:29N 38°33' W 090°14'1 1.4
2018-May-11 11:58N 38°32' W 090°15'0 0.1
2018-May-11 11:30N 38°33' W 090°15'0 0.3
2018-May-11 11:00N 38°32' W 090°15'0 0.6
2018-May-11 10:29N 38°32' W 090°15'0 0.8
2018-May-11 09:57N 38°32' W 090°15'0 0.3
2018-May-11 09:28N 38°32' W 090°16'1 1.1
2018-May-11 08:59N 38°32' W 090°15'0 0.7
2018-May-11 08:30N 38°32' W 090°15'1 0.9
2018-May-11 07:52N 38°31' W 090°16'6 5.2
2018-May-11 06:47N 38°36' W 090°12'2 7.6
2018-May-11 06:28N 38°38' W 090°11'1 1.0
2018-May-11 05:36N 38°39' W 090°11'1 6.4
2018-May-11 05:30N 38°40' W 090°11'0 0.8
2018-May-11 05:00N 38°40' W 090°11'1 3.0
2018-May-11 04:30N 38°39' W 090°11'0 0.0
2018-May-11 03:54N 38°39' W 090°11'0 0.2
2018-May-11 03:29N 38°39' W 090°11'1 1.7
2018-May-11 03:00N 38°38' W 090°11'1 1.1
2018-May-11 02:30N 38°37' W 090°11'2 3.3
2018-May-11 01:59N 38°36' W 090°12'3 3.3
2018-May-11 00:56N 38°33' W 090°15'1 1.3
2018-May-11 00:17N 38°32' W 090°15'1 0.4
2018-May-10 21:37N 38°32' W 090°15'0 0.6
2018-May-10 21:30N 38°32' W 090°15'7 3.7
2018-May-10 19:37N 38°38' W 090°11'1 7.1
2018-May-10 19:28N 38°39' W 090°11'2 3.4
2018-May-10 18:59N 38°40' W 090°11'0 0.0
2018-May-10 18:30N 38°40' W 090°11'0 0.2
2018-May-10 18:00N 38°40' W 090°11'1 1.9
2018-May-10 17:30N 38°39' W 090°11'3 5.0
2018-May-10 17:00N 38°37' W 090°11'4 3.6
2018-May-10 15:56N 38°33' W 090°14'2 3.9
2018-May-10 15:29N 38°32' W 090°15'0 0.2
2018-May-10 14:54N 38°32' W 090°15'4 6.0
2018-May-10 14:16N 38°35' W 090°12'2 7.9
2018-May-10 13:59N 38°37' W 090°11'3 6.7
2018-May-10 13:30N 38°40' W 090°11'1 2.3
2018-May-10 13:00N 38°39' W 090°11'3 6.4
2018-May-10 12:30N 38°36' W 090°12'4 6.7
2018-May-10 11:59N 38°33' W 090°15'1 2.1
2018-May-10 11:30N 38°32' W 090°15'0 0.0
2018-May-10 11:00N 38°32' W 090°15'0 0.0
2018-May-10 10:30N 38°32' W 090°15'1 1.7
2018-May-10 10:00N 38°32' W 090°15'0 0.0
2018-May-10 09:30N 38°32' W 090°15'0 0.0
2018-May-10 09:00N 38°32' W 090°15'0 0.0
2018-May-10 08:30N 38°32' W 090°15'0 0.3
2018-May-10 08:00N 38°32' W 090°16'0 0.6
2018-May-10 07:30N 38°31' W 090°16'5 8.3
2018-May-10 06:55N 38°35' W 090°12'1 2.8
2018-May-10 06:30N 38°36' W 090°11'0 0.5
2018-May-10 06:00N 38°36' W 090°11'4 4.5
2018-May-10 05:10N 38°33' W 090°15'4 2.7
2018-May-10 03:39N 38°36' W 090°11'0 0.2
2018-May-10 03:30N 38°36' W 090°11'1 1.7
2018-May-10 02:42N 38°38' W 090°11'312.5
2018-May-10 02:30N 38°40' W 090°11'0 0.3
2018-May-10 02:00N 38°40' W 090°11'1 2.1
2018-May-10 01:29N 38°39' W 090°11'2 4.4
2018-May-10 01:01N 38°37' W 090°11'5 3.5
2018-May-09 23:30N 38°33' W 090°15'0 0.8
2018-May-09 22:55N 38°32' W 090°15'0 0.0
2018-May-09 08:07N 38°33' W 090°15'1 3.6
2018-May-09 07:59N 38°33' W 090°15'1 0.4
2018-May-09 06:46N 38°33' W 090°15'1 1.6
2018-May-09 06:25N 38°32' W 090°15'0 0.1
2018-May-09 02:21N 38°32' W 090°15'0 0.0
2018-May-08 22:27N 38°32' W 090°15'0 0.0
2018-May-08 22:00N 38°32' W 090°15'1 0.5
2018-May-08 20:07N 38°32' W 090°15'0 0.1
2018-May-08 19:59N 38°32' W 090°15'0 0.1
2018-May-08 19:26N 38°32' W 090°15'1 0.6
2018-May-08 17:29N 38°33' W 090°15'1 0.7
2018-May-08 16:34N 38°33' W 090°14'0 6.8
2018-May-08 16:30N 38°33' W 090°15'1 2.4
2018-May-08 16:00N 38°32' W 090°15'1 0.6
2018-May-08 13:32N 38°33' W 090°15'0 6.6
2018-May-08 13:29N 38°33' W 090°15'1 2.3
2018-May-08 12:59N 38°32' W 090°15'1 1.5
2018-May-08 12:30N 38°32' W 090°15'0 0.0
2018-May-08 12:00N 38°32' W 090°15'0 0.0
2018-May-08 11:30N 38°32' W 090°15'0 0.0
2018-May-08 11:00N 38°32' W 090°15'0 0.0
2018-May-08 10:30N 38°32' W 090°15'1 1.9
2018-May-08 09:58N 38°33' W 090°14'0 0.1
2018-May-08 09:30N 38°33' W 090°14'0 0.1
2018-May-08 09:00N 38°33' W 090°14'0 0.0
2018-May-08 08:30N 38°33' W 090°14'0 0.3
2018-May-08 08:00N 38°33' W 090°15'510.3
2018-May-08 07:30N 38°37' W 090°11'3 5.4
2018-May-08 07:00N 38°40' W 090°11'0 0.1
2018-May-08 06:30N 38°40' W 090°11'2 3.5
2018-May-08 06:00N 38°38' W 090°11'2 4.8
2018-May-08 05:30N 38°36' W 090°11'4 4.3
2018-May-08 04:39N 38°33' W 090°15'1 4.5
2018-May-08 04:29N 38°33' W 090°15'0 1.0
2018-May-08 04:00N 38°32' W 090°15'0 0.0
2018-May-08 03:25N 38°32' W 090°15'1 1.6
2018-May-08 03:00N 38°32' W 090°15'1 0.6
2018-May-08 01:06N 38°33' W 090°15'0 0.2
2018-May-08 01:00N 38°33' W 090°15'0 0.4
2018-May-08 00:23N 38°33' W 090°15'0 0.5
2018-May-07 23:40N 38°33' W 090°15'0 0.1
2018-May-07 23:28N 38°33' W 090°15'1 1.1
2018-May-07 23:00N 38°32' W 090°15'0 0.1
2018-May-07 21:18N 38°32' W 090°15'0 0.8
2018-May-07 20:51N 38°32' W 090°15'0 0.2
2018-May-07 20:22N 38°32' W 090°15'0 0.6
2018-May-07 19:52N 38°32' W 090°15'0 0.9
2018-May-07 19:30N 38°32' W 090°15'5 9.1
2018-May-07 18:59N 38°36' W 090°11'5 1.8
2018-May-07 16:20N 38°33' W 090°15'0 0.1
2018-May-07 16:00N 38°32' W 090°15'5 9.2
2018-May-07 15:29N 38°36' W 090°11'2 4.0
2018-May-07 14:54N 38°35' W 090°13'2 4.5
2018-May-07 14:29N 38°33' W 090°14'0 0.8
2018-May-07 13:54N 38°33' W 090°14'3 7.5
2018-May-07 13:29N 38°36' W 090°12'3 6.4
2018-May-07 13:00N 38°39' W 090°11'2 4.2
2018-May-07 12:30N 38°37' W 090°11'4 6.2
2018-May-07 11:48N 38°33' W 090°15'1 0.9
2018-May-07 10:44N 38°32' W 090°15'0 0.0
2018-May-07 10:30N 38°32' W 090°15'1 0.9
2018-May-07 09:49N 38°32' W 090°15'0 0.0
2018-May-07 09:29N 38°32' W 090°15'0 0.0
2018-May-07 09:00N 38°32' W 090°15'0 0.0
2018-May-07 08:28N 38°32' W 090°15'0 0.0
2018-May-07 07:57N 38°32' W 090°15'0 0.0
2018-May-07 07:26N 38°32' W 090°15'0 0.5
2018-May-07 07:00N 38°32' W 090°15'0 0.9
2018-May-07 06:29N 38°32' W 090°15'0 0.2
2018-May-07 05:59N 38°32' W 090°15'1 1.9
2018-May-07 05:30N 38°32' W 090°16'0 0.8
2018-May-07 05:00N 38°31' W 090°16'2 3.2
2018-May-07 04:30N 38°33' W 090°15'0 0.6
2018-May-07 03:58N 38°33' W 090°15'4 9.2
2018-May-07 03:30N 38°36' W 090°11'0 0.0
2018-May-07 03:00N 38°36' W 090°11'4 3.7
2018-May-07 01:57N 38°33' W 090°14'0 0.1
2018-May-07 01:10N 38°33' W 090°15'0 0.2
2018-May-07 00:58N 38°33' W 090°14'0 0.1
2018-May-07 00:22N 38°33' W 090°14'0 0.3
2018-May-06 23:42N 38°33' W 090°15'1 3.8
2018-May-06 23:30N 38°32' W 090°15'0 0.0
2018-May-06 22:57N 38°32' W 090°15'1 0.6
2018-May-06 21:52N 38°32' W 090°15'0 0.0
2018-May-06 21:26N 38°32' W 090°15'0 0.2
2018-May-06 20:43N 38°32' W 090°16'0 0.0
2018-May-06 19:18N 38°32' W 090°15'1 1.0
2018-May-06 18:04N 38°33' W 090°15'0 0.2
2018-May-06 17:56N 38°33' W 090°15'0 0.1
2018-May-06 14:29N 38°33' W 090°15'0 0.7
2018-May-06 13:55N 38°33' W 090°15'0 0.0
2018-May-06 13:23N 38°33' W 090°15'0 0.4
2018-May-06 13:00N 38°33' W 090°15'0 0.7
2018-May-06 12:30N 38°32' W 090°15'0 0.0
2018-May-06 12:00N 38°32' W 090°15'0 0.0
2018-May-06 11:30N 38°32' W 090°15'0 0.1
2018-May-06 11:00N 38°32' W 090°15'0 0.0
2018-May-06 10:30N 38°32' W 090°15'0 0.9
2018-May-06 10:00N 38°33' W 090°15'0 0.1
2018-May-06 09:30N 38°33' W 090°15'2 4.3
2018-May-06 08:57N 38°35' W 090°13'2 4.9
2018-May-06 08:30N 38°36' W 090°11'2 3.5
2018-May-06 08:00N 38°35' W 090°13'2 4.4
2018-May-06 07:28N 38°33' W 090°15'1 1.9
2018-May-06 07:00N 38°32' W 090°15'1 1.0
2018-May-06 06:29N 38°32' W 090°15'0 0.0
2018-May-06 05:46N 38°32' W 090°15'0 0.0
2018-May-06 05:19N 38°32' W 090°15'0 0.0
2018-May-06 04:18N 38°32' W 090°15'0 0.1
2018-May-06 04:00N 38°32' W 090°15'0 0.0
2018-May-06 03:30N 38°32' W 090°15'0 0.1
2018-May-06 03:00N 38°32' W 090°15'0 0.1
2018-May-06 02:30N 38°32' W 090°16'6 5.8
2018-May-06 01:30N 38°36' W 090°11'4 7.5
2018-May-06 01:00N 38°40' W 090°11'3 6.3
2018-May-06 00:29N 38°37' W 090°11'2 4.2
2018-May-06 00:00N 38°35' W 090°12'3 6.1
2018-May-05 23:29N 38°33' W 090°15'1 0.9
2018-May-05 22:52N 38°32' W 090°15'0 0.0
2018-May-05 22:30N 38°32' W 090°15'6 4.1
2018-May-05 21:06N 38°37' W 090°11'1 7.6
2018-May-05 20:58N 38°38' W 090°11'2 4.4
2018-May-05 20:30N 38°40' W 090°11'0 0.1
2018-May-05 19:59N 38°40' W 090°11'1 1.4
2018-May-05 19:29N 38°40' W 090°11'3 6.8
2018-May-05 18:59N 38°36' W 090°11'4 7.4
2018-May-05 18:27N 38°33' W 090°15'2 3.4
2018-May-05 17:59N 38°32' W 090°15'0 0.4
2018-May-05 17:28N 38°32' W 090°15'9 3.6
2018-May-05 15:03N 38°40' W 090°11'  
Track history (hours):
 
Tides and Currents Weather Stations Pressure Air Temp Water Temp Dewpoint Dewpoint Depression Visibility Wind Speed Wind Dir Waves Ship Positions

Cumberland Express

Owner: Ingram Barge Company LLC, Nashville, TN. More information available from US FCC via Universal Licensing System and Coast Guard Vessel Documentation Center.

Last reported at 2018-May-15 14:00 UTC. Time now 2018-Jun-23 06:33 UTC.
Position N 38°33' W 090°15'.
Warning: this ship's position is 38 days out of date.

Length 14 m.

Type: Towing. MMSI: 367354540.

Date/timePositionNaut miles runAvg speedWind from/ knotsBaromVisibWave heightAir tempDewpointWater temp
2018-May-15 14:00N 38°33' W 090°15'0 0.4
2018-May-15 13:25N 38°32' W 090°15'0 0.7
2018-May-15 12:59N 38°33' W 090°15'0 0.3
2018-May-15 12:25N 38°32' W 090°15'1 1.8
2018-May-15 11:56N 38°33' W 090°14'1 2.2
2018-May-15 11:30N 38°32' W 090°15'0 0.0
2018-May-15 11:00N 38°32' W 090°15'0 0.0
2018-May-15 10:30N 38°32' W 090°15'0 0.2
2018-May-15 10:00N 38°32' W 090°15'3 4.9
2018-May-15 09:20N 38°35' W 090°13'1 2.8
2018-May-15 09:00N 38°36' W 090°12'3 6.7
2018-May-15 08:30N 38°39' W 090°11'1 2.5
2018-May-15 08:00N 38°40' W 090°11'1 2.2
2018-May-15 07:30N 38°39' W 090°11'1 1.4
2018-May-15 07:00N 38°38' W 090°11'2 4.6
2018-May-15 06:30N 38°36' W 090°11'4 4.6
2018-May-15 05:38N 38°33' W 090°15'1 3.8
2018-May-15 05:29N 38°33' W 090°15'1 1.0
2018-May-15 04:52N 38°32' W 090°15'0 0.2
2018-May-15 04:30N 38°32' W 090°15'1 1.5
2018-May-15 04:00N 38°33' W 090°15'0 0.5
2018-May-15 03:30N 38°32' W 090°15'0 0.2
2018-May-15 03:00N 38°32' W 090°15'3 4.3
2018-May-15 02:15N 38°35' W 090°13'1 2.2
2018-May-15 01:39N 38°36' W 090°11'0 2.9
2018-May-15 01:30N 38°36' W 090°12'2 3.9
2018-May-15 00:57N 38°34' W 090°14'2 3.5
2018-May-15 00:27N 38°33' W 090°15'0 0.0
2018-May-15 00:00N 38°33' W 090°15'0 0.1
2018-May-14 23:29N 38°33' W 090°15'0 0.1
2018-May-14 21:34N 38°33' W 090°15'1 0.5
2018-May-14 19:28N 38°32' W 090°16'511.0
2018-May-14 19:00N 38°36' W 090°12'4 8.6
2018-May-14 18:29N 38°40' W 090°11'0 0.0
2018-May-14 18:00N 38°40' W 090°11'2 3.4
2018-May-14 17:30N 38°39' W 090°11'3 5.8
2018-May-14 17:00N 38°36' W 090°12'4 5.5
2018-May-14 16:18N 38°33' W 090°15'1 0.5
2018-May-14 15:10N 38°33' W 090°14'0 0.1
2018-May-14 14:59N 38°33' W 090°14'0 0.0
2018-May-14 12:40N 38°33' W 090°14'1 2.0
2018-May-14 12:19N 38°33' W 090°15'0 1.0
2018-May-14 11:54N 38°32' W 090°15'0 0.0
2018-May-14 11:31N 38°32' W 090°15'0 0.0
2018-May-14 11:00N 38°32' W 090°15'0 0.0
2018-May-14 10:30N 38°32' W 090°15'1 2.3
2018-May-14 09:59N 38°31' W 090°16'0 0.0
2018-May-14 09:30N 38°31' W 090°16'0 0.0
2018-May-14 09:01N 38°31' W 090°16'0 0.0
2018-May-14 08:30N 38°31' W 090°16'0 0.0
2018-May-14 08:00N 38°31' W 090°16'0 0.1
2018-May-14 07:29N 38°31' W 090°16'1 1.6
2018-May-14 07:00N 38°32' W 090°15'5 6.4
2018-May-14 06:17N 38°36' W 090°12'2 6.7
2018-May-14 06:00N 38°37' W 090°11'1 1.5
2018-May-14 05:28N 38°38' W 090°11'2 4.7
2018-May-14 05:00N 38°40' W 090°11'1 1.5
2018-May-14 04:31N 38°40' W 090°11'1 2.6
2018-May-14 04:00N 38°38' W 090°11'1 2.4
2018-May-14 03:30N 38°37' W 090°11'1 1.6
2018-May-14 02:55N 38°36' W 090°11'4 2.0
2018-May-14 00:58N 38°33' W 090°15'0 0.0
2018-May-13 15:39N 38°33' W 090°15'1 3.3
2018-May-13 15:30N 38°32' W 090°15'1 0.6
2018-May-13 13:52N 38°31' W 090°16'0 0.3
2018-May-13 13:22N 38°31' W 090°16'0 0.1
2018-May-13 12:02N 38°31' W 090°16'0 1.2
2018-May-13 11:59N 38°31' W 090°16'1 1.2
2018-May-13 11:25N 38°32' W 090°15'0 1.0
2018-May-13 10:59N 38°32' W 090°15'0 0.0
2018-May-13 10:23N 38°32' W 090°15'0 0.5
2018-May-13 09:35N 38°33' W 090°15'0 1.2
2018-May-13 09:30N 38°33' W 090°15'0 0.1
2018-May-13 08:49N 38°33' W 090°15'0 1.2
2018-May-13 08:30N 38°33' W 090°14'0 0.1
2018-May-13 07:58N 38°33' W 090°14'4 7.2
2018-May-13 07:25N 38°36' W 090°11'0 0.2
2018-May-13 07:00N 38°36' W 090°11'1 2.5
2018-May-13 06:30N 38°37' W 090°11'5 9.2
2018-May-13 06:00N 38°42' W 090°11'1 1.2
2018-May-13 05:30N 38°43' W 090°11'3 5.7
2018-May-13 05:00N 38°45' W 090°09'4 7.9
2018-May-13 04:30N 38°49' W 090°07'1 1.9
2018-May-13 04:00N 38°50' W 090°07'4 6.9
2018-May-13 03:29N 38°46' W 090°08'4 8.2
2018-May-13 03:00N 38°43' W 090°10'1 1.5
2018-May-13 02:27N 38°42' W 090°11'10 4.9
2018-May-13 00:30N 38°33' W 090°15'1 2.6
2018-May-13 00:00N 38°32' W 090°15'1 1.5
2018-May-12 23:30N 38°32' W 090°15'0 0.0
2018-May-12 22:57N 38°32' W 090°15'1 1.2
2018-May-12 22:23N 38°32' W 090°15'5 4.2
2018-May-12 21:05N 38°36' W 090°11'1 8.4
2018-May-12 21:00N 38°37' W 090°11'3 6.8
2018-May-12 20:30N 38°40' W 090°11'0 0.1
2018-May-12 20:00N 38°40' W 090°11'0 1.0
2018-May-12 19:30N 38°40' W 090°11'3 5.7
2018-May-12 19:00N 38°37' W 090°11'5 5.2
2018-May-12 18:05N 38°33' W 090°14'1 6.6
2018-May-12 17:58N 38°32' W 090°15'1 1.9
2018-May-12 17:30N 38°32' W 090°15'0 0.5
2018-May-12 17:00N 38°32' W 090°15'5 9.2
2018-May-12 16:26N 38°36' W 090°11'4 9.1
2018-May-12 15:59N 38°40' W 090°11'2 3.9
2018-May-12 15:29N 38°38' W 090°11'3 5.4
2018-May-12 14:59N 38°36' W 090°12'3 5.5
2018-May-12 14:22N 38°33' W 090°14'1 1.9
2018-May-12 13:39N 38°32' W 090°15'1 0.4
2018-May-12 12:10N 38°31' W 090°16'0 0.1
2018-May-12 11:48N 38°31' W 090°16'1 1.9
2018-May-12 11:17N 38°32' W 090°15'0 0.0
2018-May-12 10:56N 38°32' W 090°15'0 0.4
2018-May-12 10:28N 38°32' W 090°15'1 1.1
2018-May-12 10:00N 38°32' W 090°15'0 0.5
2018-May-12 09:28N 38°31' W 090°16'0 0.9
2018-May-12 09:00N 38°32' W 090°15'0 0.4
2018-May-12 08:30N 38°32' W 090°15'0 0.6
2018-May-12 07:54N 38°31' W 090°16'0 0.3
2018-May-12 07:29N 38°31' W 090°16'0 0.3
2018-May-12 07:00N 38°32' W 090°15'0 0.3
2018-May-12 06:30N 38°31' W 090°16'0 0.8
2018-May-12 06:00N 38°32' W 090°15'0 0.9
2018-May-12 05:30N 38°31' W 090°16'1 1.2
2018-May-12 04:58N 38°32' W 090°15'0 0.2
2018-May-12 04:29N 38°32' W 090°15'5 6.9
2018-May-12 03:49N 38°36' W 090°12'3 7.9
2018-May-12 03:27N 38°39' W 090°11'2 4.0
2018-May-12 03:00N 38°40' W 090°11'0 0.1
2018-May-12 02:30N 38°40' W 090°11'1 2.0
2018-May-12 02:00N 38°39' W 090°11'3 5.7
2018-May-12 01:30N 38°36' W 090°11'4 2.4
2018-May-11 23:47N 38°33' W 090°14'1 2.8
2018-May-11 23:29N 38°32' W 090°15'6 7.0
2018-May-11 22:41N 38°37' W 090°11'213.3
2018-May-11 22:30N 38°39' W 090°11'0 0.7
2018-May-11 22:00N 38°40' W 090°11'3 5.8
2018-May-11 21:25N 38°36' W 090°11'0 0.1
2018-May-11 17:41N 38°37' W 090°11'3 7.9
2018-May-11 17:22N 38°39' W 090°11'1 2.9
2018-May-11 17:00N 38°40' W 090°11'0 0.0
2018-May-11 16:30N 38°40' W 090°11'0 0.0
2018-May-11 16:00N 38°40' W 090°11'1 1.1
2018-May-11 15:30N 38°40' W 090°11'7 2.4
2018-May-11 12:40N 38°33' W 090°14'0 2.2
2018-May-11 12:29N 38°33' W 090°14'1 1.4
2018-May-11 11:58N 38°32' W 090°15'0 0.1
2018-May-11 11:30N 38°33' W 090°15'0 0.3
2018-May-11 11:00N 38°32' W 090°15'0 0.6
2018-May-11 10:29N 38°32' W 090°15'0 0.8
2018-May-11 09:57N 38°32' W 090°15'0 0.3
2018-May-11 09:28N 38°32' W 090°16'1 1.1
2018-May-11 08:59N 38°32' W 090°15'0 0.7
2018-May-11 08:30N 38°32' W 090°15'1 0.9
2018-May-11 07:52N 38°31' W 090°16'6 5.2
2018-May-11 06:47N 38°36' W 090°12'2 7.6
2018-May-11 06:28N 38°38' W 090°11'1 1.0
2018-May-11 05:36N 38°39' W 090°11'1 6.4
2018-May-11 05:30N 38°40' W 090°11'0 0.8
2018-May-11 05:00N 38°40' W 090°11'1 3.0
2018-May-11 04:30N 38°39' W 090°11'0 0.0
2018-May-11 03:54N 38°39' W 090°11'0 0.2
2018-May-11 03:29N 38°39' W 090°11'1 1.7
2018-May-11 03:00N 38°38' W 090°11'1 1.1
2018-May-11 02:30N 38°37' W 090°11'2 3.3
2018-May-11 01:59N 38°36' W 090°12'3 3.3
2018-May-11 00:56N 38°33' W 090°15'1 1.3
2018-May-11 00:17N 38°32' W 090°15'1 0.4
2018-May-10 21:37N 38°32' W 090°15'0 0.6
2018-May-10 21:30N 38°32' W 090°15'7 3.7
2018-May-10 19:37N 38°38' W 090°11'1 7.1
2018-May-10 19:28N 38°39' W 090°11'2 3.4
2018-May-10 18:59N 38°40' W 090°11'0 0.0
2018-May-10 18:30N 38°40' W 090°11'0 0.2
2018-May-10 18:00N 38°40' W 090°11'1 1.9
2018-May-10 17:30N 38°39' W 090°11'3 5.0
2018-May-10 17:00N 38°37' W 090°11'4 3.6
2018-May-10 15:56N 38°33' W 090°14'2 3.9
2018-May-10 15:29N 38°32' W 090°15'0 0.2
2018-May-10 14:54N 38°32' W 090°15'4 6.0
2018-May-10 14:16N 38°35' W 090°12'2 7.9
2018-May-10 13:59N 38°37' W 090°11'3 6.7
2018-May-10 13:30N 38°40' W 090°11'1 2.3
2018-May-10 13:00N 38°39' W 090°11'3 6.4
2018-May-10 12:30N 38°36' W 090°12'4 6.7
2018-May-10 11:59N 38°33' W 090°15'1 2.1
2018-May-10 11:30N 38°32' W 090°15'0 0.0
2018-May-10 11:00N 38°32' W 090°15'0 0.0
2018-May-10 10:30N 38°32' W 090°15'1 1.7
2018-May-10 10:00N 38°32' W 090°15'0 0.0
2018-May-10 09:30N 38°32' W 090°15'0 0.0
2018-May-10 09:00N 38°32' W 090°15'0 0.0
2018-May-10 08:30N 38°32' W 090°15'0 0.3
2018-May-10 08:00N 38°32' W 090°16'0 0.6
2018-May-10 07:30N 38°31' W 090°16'5 8.3
2018-May-10 06:55N 38°35' W 090°12'1 2.8
2018-May-10 06:30N 38°36' W 090°11'0 0.5
2018-May-10 06:00N 38°36' W 090°11'4 4.5
2018-May-10 05:10N 38°33' W 090°15'4 2.7
2018-May-10 03:39N 38°36' W 090°11'0 0.2
2018-May-10 03:30N 38°36' W 090°11'1 1.7
2018-May-10 02:42N 38°38' W 090°11'312.5
2018-May-10 02:30N 38°40' W 090°11'0 0.3
2018-May-10 02:00N 38°40' W 090°11'1 2.1
2018-May-10 01:29N 38°39' W 090°11'2 4.4
2018-May-10 01:01N 38°37' W 090°11'5 3.5
2018-May-09 23:30N 38°33' W 090°15'0 0.8
2018-May-09 22:55N 38°32' W 090°15'0 0.0
2018-May-09 08:07N 38°33' W 090°15'1 3.6
2018-May-09 07:59N 38°33' W 090°15'1 0.4
2018-May-09 06:46N 38°33' W 090°15'1 1.6
2018-May-09 06:25N 38°32' W 090°15'0 0.1
2018-May-09 02:21N 38°32' W 090°15'0 0.0
2018-May-08 22:27N 38°32' W 090°15'0 0.0
2018-May-08 22:00N 38°32' W 090°15'1 0.5
2018-May-08 20:07N 38°32' W 090°15'0 0.1
2018-May-08 19:59N 38°32' W 090°15'0 0.1
2018-May-08 19:26N 38°32' W 090°15'1 0.6
2018-May-08 17:29N 38°33' W 090°15'1 0.7
2018-May-08 16:34N 38°33' W 090°14'0 6.8
2018-May-08 16:30N 38°33' W 090°15'1 2.4
2018-May-08 16:00N 38°32' W 090°15'1 0.6
2018-May-08 13:32N 38°33' W 090°15'0 6.6
2018-May-08 13:29N 38°33' W 090°15'1 2.3
2018-May-08 12:59N 38°32' W 090°15'1 1.5
2018-May-08 12:30N 38°32' W 090°15'0 0.0
2018-May-08 12:00N 38°32' W 090°15'0 0.0
2018-May-08 11:30N 38°32' W 090°15'0 0.0
2018-May-08 11:00N 38°32' W 090°15'0 0.0
2018-May-08 10:30N 38°32' W 090°15'1 1.9
2018-May-08 09:58N 38°33' W 090°14'0 0.1
2018-May-08 09:30N 38°33' W 090°14'0 0.1
2018-May-08 09:00N 38°33' W 090°14'0 0.0
2018-May-08 08:30N 38°33' W 090°14'0 0.3
2018-May-08 08:00N 38°33' W 090°15'510.3
2018-May-08 07:30N 38°37' W 090°11'3 5.4
2018-May-08 07:00N 38°40' W 090°11'0 0.1
2018-May-08 06:30N 38°40' W 090°11'2 3.5
2018-May-08 06:00N 38°38' W 090°11'2 4.8
2018-May-08 05:30N 38°36' W 090°11'4 4.3
2018-May-08 04:39N 38°33' W 090°15'1 4.5
2018-May-08 04:29N 38°33' W 090°15'0 1.0
2018-May-08 04:00N 38°32' W 090°15'0 0.0
2018-May-08 03:25N 38°32' W 090°15'1 1.6
2018-May-08 03:00N 38°32' W 090°15'1 0.6
2018-May-08 01:06N 38°33' W 090°15'0 0.2
2018-May-08 01:00N 38°33' W 090°15'0 0.4
2018-May-08 00:23N 38°33' W 090°15'0 0.5
2018-May-07 23:40N 38°33' W 090°15'0 0.1
2018-May-07 23:28N 38°33' W 090°15'1 1.1
2018-May-07 23:00N 38°32' W 090°15'0 0.1
2018-May-07 21:18N 38°32' W 090°15'0 0.8
2018-May-07 20:51N 38°32' W 090°15'0 0.2
2018-May-07 20:22N 38°32' W 090°15'0 0.6
2018-May-07 19:52N 38°32' W 090°15'0 0.9
2018-May-07 19:30N 38°32' W 090°15'5 9.1
2018-May-07 18:59N 38°36' W 090°11'5 1.8
2018-May-07 16:20N 38°33' W 090°15'0 0.1
2018-May-07 16:00N 38°32' W 090°15'5 9.2
2018-May-07 15:29N 38°36' W 090°11'2 4.0
2018-May-07 14:54N 38°35' W 090°13'2 4.5
2018-May-07 14:29N 38°33' W 090°14'0 0.8
2018-May-07 13:54N 38°33' W 090°14'3 7.5
2018-May-07 13:29N 38°36' W 090°12'3 6.4
2018-May-07 13:00N 38°39' W 090°11'2 4.2
2018-May-07 12:30N 38°37' W 090°11'4 6.2
2018-May-07 11:48N 38°33' W 090°15'1 0.9
2018-May-07 10:44N 38°32' W 090°15'0 0.0
2018-May-07 10:30N 38°32' W 090°15'1 0.9
2018-May-07 09:49N 38°32' W 090°15'0 0.0
2018-May-07 09:29N 38°32' W 090°15'0 0.0
2018-May-07 09:00N 38°32' W 090°15'0 0.0
2018-May-07 08:28N 38°32' W 090°15'0 0.0
2018-May-07 07:57N 38°32' W 090°15'0 0.0
2018-May-07 07:26N 38°32' W 090°15'0 0.5
2018-May-07 07:00N 38°32' W 090°15'0 0.9
2018-May-07 06:29N 38°32' W 090°15'0 0.2
2018-May-07 05:59N 38°32' W 090°15'1 1.9
2018-May-07 05:30N 38°32' W 090°16'0 0.8
2018-May-07 05:00N 38°31' W 090°16'2 3.2
2018-May-07 04:30N 38°33' W 090°15'0 0.6
2018-May-07 03:58N 38°33' W 090°15'4 9.2
2018-May-07 03:30N 38°36' W 090°11'0 0.0
2018-May-07 03:00N 38°36' W 090°11'4 3.7
2018-May-07 01:57N 38°33' W 090°14'0 0.1
2018-May-07 01:10N 38°33' W 090°15'0 0.2
2018-May-07 00:58N 38°33' W 090°14'0 0.1
2018-May-07 00:22N 38°33' W 090°14'0 0.3
2018-May-06 23:42N 38°33' W 090°15'1 3.8
2018-May-06 23:30N 38°32' W 090°15'0 0.0
2018-May-06 22:57N 38°32' W 090°15'1 0.6
2018-May-06 21:52N 38°32' W 090°15'0 0.0
2018-May-06 21:26N 38°32' W 090°15'0 0.2
2018-May-06 20:43N 38°32' W 090°16'0 0.0
2018-May-06 19:18N 38°32' W 090°15'1 1.0
2018-May-06 18:04N 38°33' W 090°15'0 0.2
2018-May-06 17:56N 38°33' W 090°15'0 0.1
2018-May-06 14:29N 38°33' W 090°15'0 0.7
2018-May-06 13:55N 38°33' W 090°15'0 0.0
2018-May-06 13:23N 38°33' W 090°15'0 0.4
2018-May-06 13:00N 38°33' W 090°15'0 0.7
2018-May-06 12:30N 38°32' W 090°15'0 0.0
2018-May-06 12:00N 38°32' W 090°15'0 0.0
2018-May-06 11:30N 38°32' W 090°15'0 0.1
2018-May-06 11:00N 38°32' W 090°15'0 0.0
2018-May-06 10:30N 38°32' W 090°15'0 0.9
2018-May-06 10:00N 38°33' W 090°15'0 0.1
2018-May-06 09:30N 38°33' W 090°15'2 4.3
2018-May-06 08:57N 38°35' W 090°13'2 4.9
2018-May-06 08:30N 38°36' W 090°11'2 3.5
2018-May-06 08:00N 38°35' W 090°13'2 4.4
2018-May-06 07:28N 38°33' W 090°15'1 1.9
2018-May-06 07:00N 38°32' W 090°15'1 1.0
2018-May-06 06:29N 38°32' W 090°15'0 0.0
2018-May-06 05:46N 38°32' W 090°15'0 0.0
2018-May-06 05:19N 38°32' W 090°15'0 0.0
2018-May-06 04:18N 38°32' W 090°15'0 0.1
2018-May-06 04:00N 38°32' W 090°15'0 0.0
2018-May-06 03:30N 38°32' W 090°15'0 0.1
2018-May-06 03:00N 38°32' W 090°15'0 0.1
2018-May-06 02:30N 38°32' W 090°16'6 5.8
2018-May-06 01:30N 38°36' W 090°11'4 7.5
2018-May-06 01:00N 38°40' W 090°11'3 6.3
2018-May-06 00:29N 38°37' W 090°11'2 4.2
2018-May-06 00:00N 38°35' W 090°12'3 6.1
2018-May-05 23:29N 38°33' W 090°15'1 0.9
2018-May-05 22:52N 38°32' W 090°15'0 0.0
2018-May-05 22:30N 38°32' W 090°15'6 4.1
2018-May-05 21:06N 38°37' W 090°11'1 7.6
2018-May-05 20:58N 38°38' W 090°11'2 4.4
2018-May-05 20:30N 38°40' W 090°11'0 0.1
2018-May-05 19:59N 38°40' W 090°11'1 1.4
2018-May-05 19:29N 38°40' W 090°11'3 6.8
2018-May-05 18:59N 38°36' W 090°11'4 7.4
2018-May-05 18:27N 38°33' W 090°15'2 3.4
2018-May-05 17:59N 38°32' W 090°15'0 0.4
2018-May-05 17:28N 38°32' W 090°15'9 3.6
2018-May-05 15:03N 38°40' W 090°11'  

Dump ship's entire track history